Terminal Aerodrome Forecast
Issued by NWS Portland, ME

Home | Current Version | Previous Version | Text Only | Print | Product List | Glossary On
Versions: 1 2 3 4 5 6 7 8 9 10 11 12 13 14 15 16 17 18 19 20 21 22 23 24 25 26 27 28 29 30
959
FTUS41 KGYX 241734
TAFCON
TAF
KCON 241734Z 2418/2518 01012G20KT 6SM -SNRA BR OVC015
     FM242100 36011G20KT 3SM -RA BR OVC010
     FM250500 33010KT 4SM -RA BR OVC010
     FM251200 31010KT P6SM BKN035=

USA.gov is the U.S. government's official web portal to all federal, state and local government web resources and services.